sensor_id;sensor_type;location;lat;lon;timestamp;pressure;altitude;pressure_sealevel;temperature;humidity
26978;BME280;56314;48.088;11.642;2023-07-29T00:00:44;95159.94;;;16.38;100.00
26978;BME280;56314;48.088;11.642;2023-07-29T00:03:10;95156.31;;;16.39;100.00
26978;BME280;56314;48.088;11.642;2023-07-29T00:05:36;95163.78;;;16.43;100.00
26978;BME280;56314;48.088;11.642;2023-07-29T00:08:02;95146.38;;;16.41;100.00
26978;BME280;56314;48.088;11.642;2023-07-29T00:10:27;95151.69;;;16.41;100.00
26978;BME280;56314;48.088;11.642;2023-07-29T00:12:52;95152.97;;;16.37;100.00
26978;BME280;56314;48.088;11.642;2023-07-29T00:15:18;95156.44;;;16.37;100.00
26978;BME280;56314;48.088;11.642;2023-07-29T00:17:43;95152.31;;;16.35;100.00
26978;BME280;56314;48.088;11.642;2023-07-29T00:20:09;95152.31;;;16.35;100.00
26978;BME280;56314;48.088;11.642;2023-07-29T00:22:34;95154.97;;;16.35;100.00
26978;BME280;56314;48.088;11.642;2023-07-29T00:24:59;95153.16;;;16.35;100.00
26978;BME280;56314;48.088;11.642;2023-07-29T00:27:25;95149.84;;;16.33;100.00
26978;BME280;56314;48.088;11.642;2023-07-29T00:29:51;95142.69;;;16.34;100.00
26978;BME280;56314;48.088;11.642;2023-07-29T00:32:16;95142.06;;;16.40;100.00
26978;BME280;56314;48.088;11.642;2023-07-29T00:34:42;95142.56;;;16.35;100.00
26978;BME280;56314;48.088;11.642;2023-07-29T00:37:07;95145.84;;;16.37;100.00
26978;BME280;56314;48.088;11.642;2023-07-29T00:39:32;95144.03;;;16.38;100.00
26978;BME280;56314;48.088;11.642;2023-07-29T00:41:58;95142.38;;;16.28;100.00
26978;BME280;56314;48.088;11.642;2023-07-29T00:44:23;95140.69;;;16.27;100.00
26978;BME280;56314;48.088;11.642;2023-07-29T00:46:50;95136.03;;;16.21;100.00
26978;BME280;56314;48.088;11.642;2023-07-29T00:49:17;95141.84;;;16.25;100.00
26978;BME280;56314;48.088;11.642;2023-07-29T00:51:42;95141.38;;;16.29;100.00
26978;BME280;56314;48.088;11.642;2023-07-29T00:54:08;95142.81;;;16.24;100.00
26978;BME280;56314;48.088;11.642;2023-07-29T00:56:33;95144.03;;;16.29;100.00
26978;BME280;56314;48.088;11.642;2023-07-29T00:58:59;95140.03;;;16.34;100.00
26978;BME280;56314;48.088;11.642;2023-07-29T01:01:30;95134.75;;;16.34;100.00
26978;BME280;56314;48.088;11.642;2023-07-29T01:03:55;95135.06;;;16.30;100.00
26978;BME280;56314;48.088;11.642;2023-07-29T01:09:22;95132.28;;;16.32;100.00
26978;BME280;56314;48.088;11.642;2023-07-29T01:15:03;95141.03;;;16.33;100.00
26978;BME280;56314;48.088;11.642;2023-07-29T01:17:35;95126.97;;;16.32;100.00
26978;BME280;56314;48.088;11.642;2023-07-29T01:20:08;95136.22;;;16.28;100.00
26978;BME280;56314;48.088;11.642;2023-07-29T01:22:35;95133.56;;;16.28;100.00
26978;BME280;56314;48.088;11.642;2023-07-29T01:25:02;95122.47;;;16.24;100.00
26978;BME280;56314;48.088;11.642;2023-07-29T01:27:29;95117.97;;;16.16;100.00
26978;BME280;56314;48.088;11.642;2023-07-29T01:29:55;95115.97;;;16.10;100.00
26978;BME280;56314;48.088;11.642;2023-07-29T01:32:29;95123.72;;;16.04;100.00
26978;BME280;56314;48.088;11.642;2023-07-29T01:37:53;95111.31;;;16.12;100.00
26978;BME280;56314;48.088;11.642;2023-07-29T01:40:26;95113.78;;;16.06;100.00
26978;BME280;56314;48.088;11.642;2023-07-29T01:42:51;95112.59;;;16.00;100.00
26978;BME280;56314;48.088;11.642;2023-07-29T01:45:17;95110.97;;;15.99;100.00
26978;BME280;56314;48.088;11.642;2023-07-29T01:47:42;95106.66;;;15.98;100.00
26978;BME280;56314;48.088;11.642;2023-07-29T01:50:08;95106.97;;;15.95;100.00
26978;BME280;56314;48.088;11.642;2023-07-29T01:52:34;95103.13;;;15.89;100.00
26978;BME280;56314;48.088;11.642;2023-07-29T01:54:59;95112.06;;;15.88;100.00
26978;BME280;56314;48.088;11.642;2023-07-29T01:57:25;95114.31;;;15.83;100.00
26978;BME280;56314;48.088;11.642;2023-07-29T01:59:50;95106.53;;;15.81;100.00
26978;BME280;56314;48.088;11.642;2023-07-29T02:02:16;95104.19;;;15.78;100.00
26978;BME280;56314;48.088;11.642;2023-07-29T02:04:41;95106.50;;;15.73;100.00
26978;BME280;56314;48.088;11.642;2023-07-29T02:07:06;95101.34;;;15.72;100.00
26978;BME280;56314;48.088;11.642;2023-07-29T02:09:31;95101.50;;;15.70;100.00
26978;BME280;56314;48.088;11.642;2023-07-29T02:11:57;95093.56;;;15.70;100.00
26978;BME280;56314;48.088;11.642;2023-07-29T02:14:22;95097.88;;;15.71;100.00
26978;BME280;56314;48.088;11.642;2023-07-29T02:16:48;95097.41;;;15.76;100.00
26978;BME280;56314;48.088;11.642;2023-07-29T02:19:14;95098.22;;;15.76;100.00
26978;BME280;56314;48.088;11.642;2023-07-29T02:21:39;95090.28;;;15.76;100.00
26978;BME280;56314;48.088;11.642;2023-07-29T02:24:05;95090.13;;;15.69;100.00
26978;BME280;56314;48.088;11.642;2023-07-29T02:26:30;95092.09;;;15.67;100.00
26978;BME280;56314;48.088;11.642;2023-07-29T02:28:55;95089.56;;;15.66;100.00
26978;BME280;56314;48.088;11.642;2023-07-29T02:31:22;95083.97;;;15.69;100.00
26978;BME280;56314;48.088;11.642;2023-07-29T02:33:48;95090.94;;;15.70;100.00
26978;BME280;56314;48.088;11.642;2023-07-29T02:36:14;95097.88;;;15.71;100.00
26978;BME280;56314;48.088;11.642;2023-07-29T02:38:40;95095.41;;;15.69;100.00
26978;BME280;56314;48.088;11.642;2023-07-29T02:41:06;95112.41;;;15.67;100.00
26978;BME280;56314;48.088;11.642;2023-07-29T02:43:31;95111.72;;;15.65;100.00
26978;BME280;56314;48.088;11.642;2023-07-29T02:45:57;95119.84;;;15.63;100.00
26978;BME280;56314;48.088;11.642;2023-07-29T02:48:22;95120.31;;;15.59;100.00
26978;BME280;56314;48.088;11.642;2023-07-29T02:50:47;95119.84;;;15.63;100.00
26978;BME280;56314;48.088;11.642;2023-07-29T02:53:13;95117.97;;;15.55;100.00
26978;BME280;56314;48.088;11.642;2023-07-29T02:55:41;95113.31;;;15.49;100.00
26978;BME280;56314;48.088;11.642;2023-07-29T02:58:07;95108.78;;;15.42;100.00
26978;BME280;56314;48.088;11.642;2023-07-29T03:00:32;95112.72;;;15.37;100.00
26978;BME280;56314;48.088;11.642;2023-07-29T03:02:58;95115.25;;;15.39;100.00
26978;BME280;56314;48.088;11.642;2023-07-29T03:05:24;95109.28;;;15.37;100.00
26978;BME280;56314;48.088;11.642;2023-07-29T03:07:49;95105.94;;;15.35;100.00
26978;BME280;56314;48.088;11.642;2023-07-29T03:10:14;95110.56;;;15.33;100.00
26978;BME280;56314;48.088;11.642;2023-07-29T03:12:40;95110.25;;;15.36;100.00
26978;BME280;56314;48.088;11.642;2023-07-29T03:15:06;95103.59;;;15.32;100.00
26978;BME280;56314;48.088;11.642;2023-07-29T03:17:31;95101.94;;;15.31;100.00
26978;BME280;56314;48.088;11.642;2023-07-29T03:19:56;95099.47;;;15.29;100.00
26978;BME280;56314;48.088;11.642;2023-07-29T03:22:22;95104.22;;;15.26;100.00
26978;BME280;56314;48.088;11.642;2023-07-29T03:24:47;95113.66;;;15.28;100.00
26978;BME280;56314;48.088;11.642;2023-07-29T03:27:12;95115.78;;;15.24;100.00
26978;BME280;56314;48.088;11.642;2023-07-29T03:29:40;95109.81;;;15.22;100.00
26978;BME280;56314;48.088;11.642;2023-07-29T03:32:05;95106.50;;;15.20;100.00
26978;BME280;56314;48.088;11.642;2023-07-29T03:34:31;95097.19;;;15.16;100.00
26978;BME280;56314;48.088;11.642;2023-07-29T03:36:57;95101.59;;;15.26;100.00
26978;BME280;56314;48.088;11.642;2023-07-29T03:39:22;95092.00;;;15.24;100.00
26978;BME280;56314;48.088;11.642;2023-07-29T03:41:48;95102.06;;;15.21;100.00
26978;BME280;56314;48.088;11.642;2023-07-29T03:44:13;95092.97;;;15.23;100.00
26978;BME280;56314;48.088;11.642;2023-07-29T03:46:39;95094.25;;;15.19;100.00
26978;BME280;56314;48.088;11.642;2023-07-29T03:49:04;95090.41;;;15.14;100.00
26978;BME280;56314;48.088;11.642;2023-07-29T03:51:29;95099.84;;;15.16;100.00
26978;BME280;56314;48.088;11.642;2023-07-29T03:53:55;95090.16;;;15.25;100.00
26978;BME280;56314;48.088;11.642;2023-07-29T03:56:20;95091.66;;;15.28;100.00
26978;BME280;56314;48.088;11.642;2023-07-29T03:58:46;95107.22;;;15.31;100.00
26978;BME280;56314;48.088;11.642;2023-07-29T04:01:13;95105.94;;;15.35;100.00
26978;BME280;56314;48.088;11.642;2023-07-29T04:03:38;95109.63;;;15.42;100.00
26978;BME280;56314;48.088;11.642;2023-07-29T04:06:04;95102.34;;;15.44;100.00
26978;BME280;56314;48.088;11.642;2023-07-29T04:08:29;95097.94;;;15.53;100.00
26978;BME280;56314;48.088;11.642;2023-07-29T04:10:55;95094.63;;;15.51;100.00
26978;BME280;56314;48.088;11.642;2023-07-29T04:13:20;95095.31;;;15.53;100.00
26978;BME280;56314;48.088;11.642;2023-07-29T04:15:45;95087.66;;;15.50;100.00
26978;BME280;56314;48.088;11.642;2023-07-29T04:18:11;95082.59;;;15.57;100.00
26978;BME280;56314;48.088;11.642;2023-07-29T04:20:36;95067.84;;;15.54;100.00
26978;BME280;56314;48.088;11.642;2023-07-29T04:23:01;95069.19;;;15.58;100.00
26978;BME280;56314;48.088;11.642;2023-07-29T04:25:27;95061.78;;;15.62;100.00
26978;BME280;56314;48.088;11.642;2023-07-29T04:27:53;95053.38;;;15.66;100.00
26978;BME280;56314;48.088;11.642;2023-07-29T04:30:18;95051.41;;;15.68;100.00
26978;BME280;56314;48.088;11.642;2023-07-29T04:32:44;95050.06;;;15.73;100.00
26978;BME280;56314;48.088;11.642;2023-07-29T04:35:10;95052.56;;;15.74;100.00
26978;BME280;56314;48.088;11.642;2023-07-29T04:37:35;95053.91;;;15.78;100.00
26978;BME280;56314;48.088;11.642;2023-07-29T04:40:01;95054.25;;;15.83;100.00
26978;BME280;56314;48.088;11.642;2023-07-29T04:42:26;95054.31;;;15.92;100.00
26978;BME280;56314;48.088;11.642;2023-07-29T04:44:51;95056.34;;;15.98;100.00
26978;BME280;56314;48.088;11.642;2023-07-29T04:47:17;95051.06;;;16.14;100.00
26978;BME280;56314;48.088;11.642;2023-07-29T04:49:42;95058.09;;;16.40;100.00
26978;BME280;56314;48.088;11.642;2023-07-29T04:52:07;95063.25;;;16.58;100.00
26978;BME280;56314;48.088;11.642;2023-07-29T04:54:33;95068.41;;;16.85;100.00
26978;BME280;56314;48.088;11.642;2023-07-29T04:56:58;95055.84;;;16.95;99.24
26978;BME280;56314;48.088;11.642;2023-07-29T04:59:23;95057.19;;;17.07;98.18
26978;BME280;56314;48.088;11.642;2023-07-29T05:01:49;95052.31;;;17.28;98.11
26978;BME280;56314;48.088;11.642;2023-07-29T05:04:14;95045.34;;;17.91;94.46
26978;BME280;56314;48.088;11.642;2023-07-29T05:06:40;95039.81;;;18.87;87.74
26978;BME280;56314;48.088;11.642;2023-07-29T05:09:13;95030.75;;;19.50;82.04
26978;BME280;56314;48.088;11.642;2023-07-29T05:11:38;95031.59;;;19.65;80.96
26978;BME280;56314;48.088;11.642;2023-07-29T05:14:04;95030.06;;;20.23;79.18
26978;BME280;56314;48.088;11.642;2023-07-29T05:16:31;95018.47;;;21.17;75.16
26978;BME280;56314;48.088;11.642;2023-07-29T05:18:56;95016.72;;;21.60;70.25
26978;BME280;56314;48.088;11.642;2023-07-29T05:21:22;95018.63;;;21.37;71.74
26978;BME280;56314;48.088;11.642;2023-07-29T05:23:47;95012.69;;;21.71;70.72
26978;BME280;56314;48.088;11.642;2023-07-29T05:26:12;95010.78;;;21.36;70.73
26978;BME280;56314;48.088;11.642;2023-07-29T05:28:38;95006.88;;;20.82;72.20
26978;BME280;56314;48.088;11.642;2023-07-29T05:31:03;95002.91;;;20.34;74.63
26978;BME280;56314;48.088;11.642;2023-07-29T05:33:28;95003.97;;;20.18;77.03
26978;BME280;56314;48.088;11.642;2023-07-29T05:35:54;95002.63;;;20.44;76.20
26978;BME280;56314;48.088;11.642;2023-07-29T05:38:19;95008.59;;;20.68;74.55
26978;BME280;56314;48.088;11.642;2023-07-29T05:40:45;95019.63;;;20.43;75.66
26978;BME280;56314;48.088;11.642;2023-07-29T05:43:10;95030.84;;;20.17;75.95
26978;BME280;56314;48.088;11.642;2023-07-29T05:45:35;95036.91;;;19.80;78.64
26978;BME280;56314;48.088;11.642;2023-07-29T05:48:01;95037.84;;;19.58;80.87
26978;BME280;56314;48.088;11.642;2023-07-29T05:50:26;95045.72;;;19.36;81.97
26978;BME280;56314;48.088;11.642;2023-07-29T05:52:52;95037.34;;;19.39;83.50
26978;BME280;56314;48.088;11.642;2023-07-29T05:55:17;95038.66;;;19.43;82.41
26978;BME280;56314;48.088;11.642;2023-07-29T05:57:42;95038.34;;;19.23;84.55
26978;BME280;56314;48.088;11.642;2023-07-29T06:00:08;95035.91;;;18.98;85.62
26978;BME280;56314;48.088;11.642;2023-07-29T06:02:33;95045.84;;;18.81;87.37
26978;BME280;56314;48.088;11.642;2023-07-29T06:04:59;95055.09;;;18.62;88.14
26978;BME280;56314;48.088;11.642;2023-07-29T06:07:25;95081.84;;;18.37;90.00
26978;BME280;56314;48.088;11.642;2023-07-29T06:09:54;95112.03;;;18.13;92.84
26978;BME280;56314;48.088;11.642;2023-07-29T06:12:20;95114.91;;;17.95;95.62
26978;BME280;56314;48.088;11.642;2023-07-29T06:14:45;95096.19;;;17.80;100.00
26978;BME280;56314;48.088;11.642;2023-07-29T06:17:11;95089.88;;;17.73;100.00
26978;BME280;56314;48.088;11.642;2023-07-29T06:19:36;95055.59;;;17.54;100.00
26978;BME280;56314;48.088;11.642;2023-07-29T06:22:02;95038.88;;;17.37;100.00
26978;BME280;56314;48.088;11.642;2023-07-29T06:24:27;95046.22;;;17.19;100.00
26978;BME280;56314;48.088;11.642;2023-07-29T06:26:53;95042.56;;;17.12;100.00
26978;BME280;56314;48.088;11.642;2023-07-29T06:29:18;95050.84;;;17.08;100.00
26978;BME280;56314;48.088;11.642;2023-07-29T06:31:43;95047.03;;;17.03;100.00
26978;BME280;56314;48.088;11.642;2023-07-29T06:34:09;95056.00;;;17.10;100.00
26978;BME280;56314;48.088;11.642;2023-07-29T06:36:34;95049.34;;;17.14;100.00
26978;BME280;56314;48.088;11.642;2023-07-29T06:38:59;95056.66;;;17.20;100.00
26978;BME280;56314;48.088;11.642;2023-07-29T06:41:25;95066.09;;;17.23;100.00
26978;BME280;56314;48.088;11.642;2023-07-29T06:43:50;95072.25;;;17.23;100.00
26978;BME280;56314;48.088;11.642;2023-07-29T06:46:15;95086.66;;;17.21;100.00
26978;BME280;56314;48.088;11.642;2023-07-29T06:48:41;95082.53;;;17.18;100.00
26978;BME280;56314;48.088;11.642;2023-07-29T06:51:06;95101.59;;;17.14;100.00
26978;BME280;56314;48.088;11.642;2023-07-29T06:53:31;95118.66;;;17.03;100.00
26978;BME280;56314;48.088;11.642;2023-07-29T06:55:57;95136.72;;;16.99;100.00
26978;BME280;56314;48.088;11.642;2023-07-29T06:58:22;95124.94;;;16.93;100.00
26978;BME280;56314;48.088;11.642;2023-07-29T07:00:47;95122.59;;;16.90;100.00
26978;BME280;56314;48.088;11.642;2023-07-29T07:03:13;95137.69;;;16.90;100.00
26978;BME280;56314;48.088;11.642;2023-07-29T07:05:38;95143.31;;;16.87;100.00
26978;BME280;56314;48.088;11.642;2023-07-29T07:08:03;95144.66;;;16.91;100.00
26978;BME280;56314;48.088;11.642;2023-07-29T07:10:29;95141.66;;;16.86;100.00
26978;BME280;56314;48.088;11.642;2023-07-29T07:12:54;95139.34;;;16.83;100.00
26978;BME280;56314;48.088;11.642;2023-07-29T07:15:19;95132.41;;;16.90;100.00
26978;BME280;56314;48.088;11.642;2023-07-29T07:17:45;95135.03;;;16.90;100.00
26978;BME280;56314;48.088;11.642;2023-07-29T07:20:10;95132.72;;;16.87;100.00
26978;BME280;56314;48.088;11.642;2023-07-29T07:22:36;95121.78;;;16.90;100.00
26978;BME280;56314;48.088;11.642;2023-07-29T07:25:02;95127.47;;;16.95;100.00
26978;BME280;56314;48.088;11.642;2023-07-29T07:27:27;95124.63;;;16.97;100.00
26978;BME280;56314;48.088;11.642;2023-07-29T07:29:52;95128.78;;;16.99;100.00
26978;BME280;56314;48.088;11.642;2023-07-29T07:32:18;95128.94;;;17.06;100.00
26978;BME280;56314;48.088;11.642;2023-07-29T07:34:43;95121.47;;;17.10;100.00
26978;BME280;56314;48.088;11.642;2023-07-29T07:37:08;95115.84;;;17.13;100.00
26978;BME280;56314;48.088;11.642;2023-07-29T07:39:34;95105.41;;;17.11;100.00
26978;BME280;56314;48.088;11.642;2023-07-29T07:41:59;95095.47;;;17.13;100.00
26978;BME280;56314;48.088;11.642;2023-07-29T07:44:25;95088.69;;;17.19;100.00
26978;BME280;56314;48.088;11.642;2023-07-29T07:46:52;95083.50;;;17.17;100.00
26978;BME280;56314;48.088;11.642;2023-07-29T07:49:17;95072.75;;;17.11;100.00
26978;BME280;56314;48.088;11.642;2023-07-29T07:51:45;95060.13;;;17.13;100.00
26978;BME280;56314;48.088;11.642;2023-07-29T07:54:11;95064.78;;;17.11;100.00
26978;BME280;56314;48.088;11.642;2023-07-29T07:56:36;95061.00;;;17.13;100.00
26978;BME280;56314;48.088;11.642;2023-07-29T07:59:01;95062.97;;;17.19;100.00
26978;BME280;56314;48.088;11.642;2023-07-29T08:01:27;95058.31;;;17.21;100.00
26978;BME280;56314;48.088;11.642;2023-07-29T08:03:52;95057.66;;;17.19;100.00
26978;BME280;56314;48.088;11.642;2023-07-29T08:06:17;95067.78;;;17.16;100.00
26978;BME280;56314;48.088;11.642;2023-07-29T08:08:43;95066.28;;;17.13;100.00
26978;BME280;56314;48.088;11.642;2023-07-29T08:11:08;95070.44;;;17.16;100.00
26978;BME280;56314;48.088;11.642;2023-07-29T08:13:33;95063.13;;;17.26;100.00
26978;BME280;56314;48.088;11.642;2023-07-29T08:15:59;95072.38;;;17.38;100.00
26978;BME280;56314;48.088;11.642;2023-07-29T08:18:24;95072.22;;;17.48;100.00
26978;BME280;56314;48.088;11.642;2023-07-29T08:20:58;95066.34;;;17.61;100.00
26978;BME280;56314;48.088;11.642;2023-07-29T08:23:24;95070.63;;;17.79;100.00
26978;BME280;56314;48.088;11.642;2023-07-29T08:25:54;95065.59;;;18.00;100.00
26978;BME280;56314;48.088;11.642;2023-07-29T08:28:21;95064.50;;;18.18;100.00
26978;BME280;56314;48.088;11.642;2023-07-29T08:30:47;95063.25;;;18.37;100.00
26978;BME280;56314;48.088;11.642;2023-07-29T08:33:12;95066.16;;;18.51;100.00
26978;BME280;56314;48.088;11.642;2023-07-29T08:35:38;95059.91;;;18.67;100.00
26978;BME280;56314;48.088;11.642;2023-07-29T08:38:03;95062.63;;;18.82;100.00
26978;BME280;56314;48.088;11.642;2023-07-29T08:40:30;95050.06;;;18.99;100.00
26978;BME280;56314;48.088;11.642;2023-07-29T08:42:58;95059.00;;;19.21;100.00
26978;BME280;56314;48.088;11.642;2023-07-29T08:45:24;95060.19;;;19.18;99.30
26978;BME280;56314;48.088;11.642;2023-07-29T08:47:55;95065.72;;;19.17;98.84
26978;BME280;56314;48.088;11.642;2023-07-29T08:50:24;95063.66;;;19.19;98.04
26978;BME280;56314;48.088;11.642;2023-07-29T08:52:51;95064.22;;;19.14;98.14
26978;BME280;56314;48.088;11.642;2023-07-29T08:55:18;95060.19;;;19.18;98.23
26978;BME280;56314;48.088;11.642;2023-07-29T08:57:44;95051.66;;;19.23;97.01
26978;BME280;56314;48.088;11.642;2023-07-29T09:00:10;95059.09;;;19.28;97.48
26978;BME280;56314;48.088;11.642;2023-07-29T09:02:36;95055.53;;;19.35;96.60
26978;BME280;56314;48.088;11.642;2023-07-29T09:05:01;95049.59;;;19.48;96.46
26978;BME280;56314;48.088;11.642;2023-07-29T09:07:27;95041.25;;;19.66;95.49
26978;BME280;56314;48.088;11.642;2023-07-29T09:09:54;95040.88;;;19.84;93.12
26978;BME280;56314;48.088;11.642;2023-07-29T09:12:19;95051.53;;;20.14;92.84
26978;BME280;56314;48.088;11.642;2023-07-29T09:14:44;95060.00;;;20.40;92.46
26978;BME280;56314;48.088;11.642;2023-07-29T09:17:10;95058.53;;;20.74;88.36
26978;BME280;56314;48.088;11.642;2023-07-29T09:19:35;95051.75;;;21.43;84.48
26978;BME280;56314;48.088;11.642;2023-07-29T09:22:01;95049.25;;;22.47;78.78
26978;BME280;56314;48.088;11.642;2023-07-29T09:24:26;95041.69;;;23.78;71.80
26978;BME280;56314;48.088;11.642;2023-07-29T09:26:54;95041.03;;;24.49;65.33
26978;BME280;56314;48.088;11.642;2023-07-29T09:29:23;95036.75;;;25.37;64.65
26978;BME280;56314;48.088;11.642;2023-07-29T09:31:49;95036.69;;;26.43;58.79
26978;BME280;56314;48.088;11.642;2023-07-29T09:34:15;95031.94;;;27.30;54.87
26978;BME280;56314;48.088;11.642;2023-07-29T09:36:40;95038.72;;;28.04;52.65
26978;BME280;56314;48.088;11.642;2023-07-29T09:39:11;95034.66;;;28.54;53.28
26978;BME280;56314;48.088;11.642;2023-07-29T09:41:38;95036.72;;;28.76;51.71
26978;BME280;56314;48.088;11.642;2023-07-29T09:44:04;95038.94;;;28.79;50.01
26978;BME280;56314;48.088;11.642;2023-07-29T09:46:35;95031.47;;;28.17;48.81
26978;BME280;56314;48.088;11.642;2023-07-29T09:49:03;95034.88;;;28.24;50.12
26978;BME280;56314;48.088;11.642;2023-07-29T09:51:28;95036.41;;;28.90;49.09
26978;BME280;56314;48.088;11.642;2023-07-29T09:53:53;95035.25;;;29.48;46.81
26978;BME280;56314;48.088;11.642;2023-07-29T09:56:26;95030.00;;;29.42;46.84
26978;BME280;56314;48.088;11.642;2023-07-29T09:58:52;95035.00;;;28.58;46.31
26978;BME280;56314;48.088;11.642;2023-07-29T10:01:17;95037.59;;;27.64;49.03
26978;BME280;56314;48.088;11.642;2023-07-29T10:03:44;95033.88;;;26.99;52.04
26978;BME280;56314;48.088;11.642;2023-07-29T10:06:10;95029.44;;;27.05;54.31
26978;BME280;56314;48.088;11.642;2023-07-29T10:08:36;95027.31;;;26.95;52.76
26978;BME280;56314;48.088;11.642;2023-07-29T10:11:08;95034.41;;;26.59;53.93
26978;BME280;56314;48.088;11.642;2023-07-29T10:13:35;95033.13;;;26.62;54.81
26978;BME280;56314;48.088;11.642;2023-07-29T10:16:00;95027.53;;;26.94;54.01
26978;BME280;56314;48.088;11.642;2023-07-29T10:18:30;95021.81;;;27.02;53.06
26978;BME280;56314;48.088;11.642;2023-07-29T10:20:57;95015.56;;;27.68;52.54
26978;BME280;56314;48.088;11.642;2023-07-29T10:23:25;95019.19;;;27.61;51.19
26978;BME280;56314;48.088;11.642;2023-07-29T10:26:03;95015.44;;;27.50;51.98
26978;BME280;56314;48.088;11.642;2023-07-29T10:28:30;95010.88;;;27.51;54.15
26978;BME280;56314;48.088;11.642;2023-07-29T10:30:56;95010.97;;;27.80;52.98
26978;BME280;56314;48.088;11.642;2023-07-29T10:33:22;95004.56;;;28.63;50.08
26978;BME280;56314;48.088;11.642;2023-07-29T10:35:47;94997.69;;;29.52;50.44
26978;BME280;56314;48.088;11.642;2023-07-29T10:38:13;94993.84;;;29.87;44.50
26978;BME280;56314;48.088;11.642;2023-07-29T10:40:54;94994.47;;;30.12;45.65
26978;BME280;56314;48.088;11.642;2023-07-29T10:45:55;94996.25;;;30.50;46.69
26978;BME280;56314;48.088;11.642;2023-07-29T10:51:30;94989.19;;;29.83;44.36
26978;BME280;56314;48.088;11.642;2023-07-29T10:54:23;94982.44;;;30.24;44.28
26978;BME280;56314;48.088;11.642;2023-07-29T10:56:49;94986.59;;;30.10;43.71
26978;BME280;56314;48.088;11.642;2023-07-29T11:01:59;94978.59;;;30.20;44.81
26978;BME280;56314;48.088;11.642;2023-07-29T11:04:26;94990.34;;;29.87;43.55
26978;BME280;56314;48.088;11.642;2023-07-29T11:12:42;94974.78;;;31.26;40.72
26978;BME280;56314;48.088;11.642;2023-07-29T11:17:43;94971.53;;;31.67;40.65
26978;BME280;56314;48.088;11.642;2023-07-29T11:20:10;94970.34;;;31.52;40.32
26978;BME280;56314;48.088;11.642;2023-07-29T11:22:36;94973.59;;;30.84;39.47
26978;BME280;56314;48.088;11.642;2023-07-29T11:25:02;94983.34;;;30.58;40.22
26978;BME280;56314;48.088;11.642;2023-07-29T11:27:28;94966.75;;;30.27;42.30
26978;BME280;56314;48.088;11.642;2023-07-29T11:29:58;94964.66;;;29.50;42.02
26978;BME280;56314;48.088;11.642;2023-07-29T11:32:24;94968.84;;;28.72;44.60
26978;BME280;56314;48.088;11.642;2023-07-29T11:34:50;94994.25;;;28.19;46.41
26978;BME280;56314;48.088;11.642;2023-07-29T11:37:16;94993.53;;;27.71;49.02
26978;BME280;56314;48.088;11.642;2023-07-29T11:39:41;95010.63;;;27.29;47.92
26978;BME280;56314;48.088;11.642;2023-07-29T11:42:11;94997.72;;;27.19;47.42
26978;BME280;56314;48.088;11.642;2023-07-29T11:44:36;94994.34;;;27.35;47.23
26978;BME280;56314;48.088;11.642;2023-07-29T11:47:06;95000.94;;;28.04;45.75
26978;BME280;56314;48.088;11.642;2023-07-29T11:49:32;94996.06;;;28.42;46.19
26978;BME280;56314;48.088;11.642;2023-07-29T11:51:58;94993.47;;;28.76;45.14
26978;BME280;56314;48.088;11.642;2023-07-29T11:54:24;94991.53;;;29.06;45.24
26978;BME280;56314;48.088;11.642;2023-07-29T11:56:50;94989.19;;;29.43;45.34
26978;BME280;56314;48.088;11.642;2023-07-29T11:59:15;94980.97;;;29.55;44.45
26978;BME280;56314;48.088;11.642;2023-07-29T12:01:41;94984.28;;;29.79;43.97
26978;BME280;56314;48.088;11.642;2023-07-29T12:04:06;94983.53;;;29.84;42.85
26978;BME280;56314;48.088;11.642;2023-07-29T12:06:32;94985.56;;;29.55;42.75
26978;BME280;56314;48.088;11.642;2023-07-29T12:08:57;94977.66;;;29.70;43.95
26978;BME280;56314;48.088;11.642;2023-07-29T12:11:23;94972.25;;;29.70;42.52
26978;BME280;56314;48.088;11.642;2023-07-29T12:13:48;94962.44;;;29.47;44.45
26978;BME280;56314;48.088;11.642;2023-07-29T12:16:17;94963.94;;;29.21;44.41
26978;BME280;56314;48.088;11.642;2023-07-29T12:18:45;94958.53;;;29.21;44.24
26978;BME280;56314;48.088;11.642;2023-07-29T12:21:10;94963.94;;;29.21;43.49
26978;BME280;56314;48.088;11.642;2023-07-29T12:23:36;94955.00;;;29.20;44.80
26978;BME280;56314;48.088;11.642;2023-07-29T12:26:01;94951.09;;;29.28;44.92
26978;BME280;56314;48.088;11.642;2023-07-29T12:28:27;94955.16;;;29.30;44.57
26978;BME280;56314;48.088;11.642;2023-07-29T12:30:56;94953.03;;;29.49;44.27
26978;BME280;56314;48.088;11.642;2023-07-29T12:33:32;94949.19;;;29.45;43.63
26978;BME280;56314;48.088;11.642;2023-07-29T12:35:58;94953.22;;;29.65;43.81
26978;BME280;56314;48.088;11.642;2023-07-29T12:38:27;94947.28;;;29.63;42.85
26978;BME280;56314;48.088;11.642;2023-07-29T12:40:53;94939.84;;;29.53;45.36
26978;BME280;56314;48.088;11.642;2023-07-29T12:43:18;94938.38;;;29.45;44.09
26978;BME280;56314;48.088;11.642;2023-07-29T12:45:44;94933.56;;;29.13;44.47
26978;BME280;56314;48.088;11.642;2023-07-29T12:48:10;94927.91;;;28.98;45.85
26978;BME280;56314;48.088;11.642;2023-07-29T12:50:36;94935.59;;;28.89;44.99
26978;BME280;56314;48.088;11.642;2023-07-29T12:53:02;94913.41;;;29.21;43.71
26978;BME280;56314;48.088;11.642;2023-07-29T12:55:27;94927.00;;;29.09;44.52
26978;BME280;56314;48.088;11.642;2023-07-29T12:57:52;94944.28;;;28.91;45.58
26978;BME280;56314;48.088;11.642;2023-07-29T13:00:18;94943.81;;;28.65;46.21
26978;BME280;56314;48.088;11.642;2023-07-29T13:02:43;94960.63;;;28.09;47.63
26978;BME280;56314;48.088;11.642;2023-07-29T13:05:10;94943.97;;;27.48;48.02